sensor_id;sensor_type;location;lat;lon;timestamp;P1;durP1;ratioP1;P2;durP2;ratioP2
66860;SDS011;53770;42.334;23.550;2022-10-31T01:28:06;5.70;;;2.60;;
66860;SDS011;53770;42.334;23.550;2022-10-31T01:30:33;8.85;;;3.40;;
66860;SDS011;53770;42.334;23.550;2022-10-31T01:32:59;6.43;;;2.38;;
66860;SDS011;53770;42.334;23.550;2022-10-31T01:35:26;3.97;;;1.83;;
66860;SDS011;53770;42.334;23.550;2022-10-31T01:37:54;8.27;;;2.10;;
66860;SDS011;53770;42.334;23.550;2022-10-31T01:40:21;7.43;;;2.73;;
66860;SDS011;53770;42.334;23.550;2022-10-31T01:42:47;4.93;;;1.80;;
66860;SDS011;53770;42.334;23.550;2022-10-31T01:45:16;8.38;;;2.20;;
66860;SDS011;53770;42.334;23.550;2022-10-31T01:47:44;7.55;;;1.80;;
66860;SDS011;53770;42.334;23.550;2022-10-31T01:50:14;5.53;;;1.90;;
66860;SDS011;53770;42.334;23.550;2022-10-31T01:52:50;5.87;;;1.97;;
66860;SDS011;53770;42.334;23.550;2022-10-31T01:55:18;6.88;;;2.22;;
66860;SDS011;53770;42.334;23.550;2022-10-31T01:57:49;7.15;;;2.20;;
66860;SDS011;53770;42.334;23.550;2022-10-31T02:00:21;7.68;;;1.90;;
66860;SDS011;53770;42.334;23.550;2022-10-31T02:02:48;5.65;;;2.42;;
66860;SDS011;53770;42.334;23.550;2022-10-31T02:05:17;5.23;;;2.07;;
66860;SDS011;53770;42.334;23.550;2022-10-31T02:07:48;4.70;;;1.70;;
66860;SDS011;53770;42.334;23.550;2022-10-31T02:10:19;4.70;;;1.90;;
66860;SDS011;53770;42.334;23.550;2022-10-31T02:12:47;7.68;;;2.20;;
66860;SDS011;53770;42.334;23.550;2022-10-31T02:15:14;5.93;;;1.92;;
66860;SDS011;53770;42.334;23.550;2022-10-31T02:17:43;5.97;;;2.00;;
66860;SDS011;53770;42.334;23.550;2022-10-31T02:20:12;5.82;;;1.95;;
66860;SDS011;53770;42.334;23.550;2022-10-31T02:22:52;7.35;;;2.10;;
66860;SDS011;53770;42.334;23.550;2022-10-31T02:25:46;6.40;;;2.10;;
66860;SDS011;53770;42.334;23.550;2022-10-31T02:28:29;6.97;;;1.92;;
66860;SDS011;53770;42.334;23.550;2022-10-31T02:31:17;5.50;;;2.00;;
66860;SDS011;53770;42.334;23.550;2022-10-31T02:33:51;5.22;;;2.22;;
66860;SDS011;53770;42.334;23.550;2022-10-31T02:36:21;8.18;;;2.10;;
66860;SDS011;53770;42.334;23.550;2022-10-31T02:38:52;5.25;;;1.85;;
66860;SDS011;53770;42.334;23.550;2022-10-31T02:41:30;3.65;;;1.90;;
66860;SDS011;53770;42.334;23.550;2022-10-31T02:44:04;6.03;;;2.03;;
66860;SDS011;53770;42.334;23.550;2022-10-31T02:46:38;4.38;;;1.77;;
66860;SDS011;53770;42.334;23.550;2022-10-31T02:49:11;6.32;;;1.63;;
66860;SDS011;53770;42.334;23.550;2022-10-31T02:51:44;7.25;;;1.58;;
66860;SDS011;53770;42.334;23.550;2022-10-31T02:54:18;5.15;;;1.73;;
66860;SDS011;53770;42.334;23.550;2022-10-31T02:56:47;4.70;;;1.87;;
66860;SDS011;53770;42.334;23.550;2022-10-31T02:59:16;7.18;;;1.75;;
66860;SDS011;53770;42.334;23.550;2022-10-31T03:01:52;4.07;;;1.73;;
66860;SDS011;53770;42.334;23.550;2022-10-31T03:07:27;5.97;;;1.90;;
66860;SDS011;53770;42.334;23.550;2022-10-31T03:10:03;6.43;;;1.97;;
66860;SDS011;53770;42.334;23.550;2022-10-31T03:12:37;4.47;;;1.80;;
66860;SDS011;53770;42.334;23.550;2022-10-31T03:15:09;8.13;;;2.35;;
66860;SDS011;53770;42.334;23.550;2022-10-31T03:17:42;9.88;;;2.00;;
66860;SDS011;53770;42.334;23.550;2022-10-31T03:20:16;6.97;;;1.88;;
66860;SDS011;53770;42.334;23.550;2022-10-31T03:22:45;6.03;;;1.83;;
66860;SDS011;53770;42.334;23.550;2022-10-31T03:25:13;7.88;;;1.60;;
66860;SDS011;53770;42.334;23.550;2022-10-31T03:27:40;7.38;;;1.60;;
66860;SDS011;53770;42.334;23.550;2022-10-31T03:30:09;5.45;;;1.88;;
66860;SDS011;53770;42.334;23.550;2022-10-31T03:32:38;6.80;;;2.00;;
66860;SDS011;53770;42.334;23.550;2022-10-31T03:35:09;8.60;;;2.37;;
66860;SDS011;53770;42.334;23.550;2022-10-31T03:37:40;9.13;;;2.00;;
66860;SDS011;53770;42.334;23.550;2022-10-31T03:40:09;5.20;;;1.75;;
66860;SDS011;53770;42.334;23.550;2022-10-31T03:42:39;7.75;;;2.10;;
66860;SDS011;53770;42.334;23.550;2022-10-31T03:45:09;5.28;;;2.17;;
66860;SDS011;53770;42.334;23.550;2022-10-31T03:47:39;7.93;;;2.03;;
66860;SDS011;53770;42.334;23.550;2022-10-31T03:50:09;5.68;;;2.30;;
66860;SDS011;53770;42.334;23.550;2022-10-31T03:52:41;6.32;;;2.03;;
66860;SDS011;53770;42.334;23.550;2022-10-31T03:55:15;5.53;;;1.35;;
66860;SDS011;53770;42.334;23.550;2022-10-31T03:57:45;5.32;;;2.00;;
66860;SDS011;53770;42.334;23.550;2022-10-31T04:00:17;7.30;;;1.70;;
66860;SDS011;53770;42.334;23.550;2022-10-31T04:02:47;6.68;;;1.92;;
66860;SDS011;53770;42.334;23.550;2022-10-31T04:05:17;8.88;;;2.45;;
66860;SDS011;53770;42.334;23.550;2022-10-31T04:07:46;6.45;;;2.08;;
66860;SDS011;53770;42.334;23.550;2022-10-31T04:10:17;8.05;;;1.98;;
66860;SDS011;53770;42.334;23.550;2022-10-31T04:12:48;7.27;;;2.30;;
66860;SDS011;53770;42.334;23.550;2022-10-31T04:15:21;14.23;;;4.35;;
66860;SDS011;53770;42.334;23.550;2022-10-31T04:17:51;9.50;;;3.25;;
66860;SDS011;53770;42.334;23.550;2022-10-31T04:20:28;11.77;;;3.80;;
66860;SDS011;53770;42.334;23.550;2022-10-31T04:22:56;14.70;;;4.18;;
66860;SDS011;53770;42.334;23.550;2022-10-31T04:25:23;11.40;;;3.30;;
66860;SDS011;53770;42.334;23.550;2022-10-31T04:27:53;7.70;;;2.60;;
66860;SDS011;53770;42.334;23.550;2022-10-31T04:30:19;8.63;;;2.75;;
66860;SDS011;53770;42.334;23.550;2022-10-31T04:32:46;7.88;;;2.15;;
66860;SDS011;53770;42.334;23.550;2022-10-31T04:35:17;19.05;;;8.00;;
66860;SDS011;53770;42.334;23.550;2022-10-31T04:37:43;7.97;;;2.60;;
66860;SDS011;53770;42.334;23.550;2022-10-31T04:40:13;8.23;;;2.90;;
66860;SDS011;53770;42.334;23.550;2022-10-31T04:42:40;7.88;;;3.13;;
66860;SDS011;53770;42.334;23.550;2022-10-31T04:45:07;5.80;;;2.85;;
66860;SDS011;53770;42.334;23.550;2022-10-31T04:47:34;6.97;;;2.05;;
66860;SDS011;53770;42.334;23.550;2022-10-31T04:50:00;9.57;;;2.03;;
66860;SDS011;53770;42.334;23.550;2022-10-31T04:52:29;6.70;;;2.40;;
66860;SDS011;53770;42.334;23.550;2022-10-31T04:54:56;6.18;;;2.53;;
66860;SDS011;53770;42.334;23.550;2022-10-31T04:57:23;7.18;;;2.95;;
66860;SDS011;53770;42.334;23.550;2022-10-31T04:59:49;5.57;;;2.55;;
66860;SDS011;53770;42.334;23.550;2022-10-31T05:02:16;10.20;;;4.63;;
66860;SDS011;53770;42.334;23.550;2022-10-31T05:04:43;12.95;;;6.35;;
66860;SDS011;53770;42.334;23.550;2022-10-31T05:07:10;14.35;;;7.00;;
66860;SDS011;53770;42.334;23.550;2022-10-31T05:09:38;14.25;;;6.63;;
66860;SDS011;53770;42.334;23.550;2022-10-31T05:12:05;18.35;;;6.93;;
66860;SDS011;53770;42.334;23.550;2022-10-31T05:14:32;12.47;;;4.97;;
66860;SDS011;53770;42.334;23.550;2022-10-31T05:16:58;14.73;;;6.07;;
66860;SDS011;53770;42.334;23.550;2022-10-31T05:19:25;18.77;;;8.10;;
66860;SDS011;53770;42.334;23.550;2022-10-31T05:21:52;15.32;;;6.93;;
66860;SDS011;53770;42.334;23.550;2022-10-31T05:24:21;18.17;;;6.22;;
66860;SDS011;53770;42.334;23.550;2022-10-31T05:26:50;15.17;;;6.03;;
66860;SDS011;53770;42.334;23.550;2022-10-31T05:29:17;16.10;;;5.40;;
66860;SDS011;53770;42.334;23.550;2022-10-31T05:31:43;18.08;;;4.50;;
66860;SDS011;53770;42.334;23.550;2022-10-31T05:34:10;14.32;;;4.03;;
66860;SDS011;53770;42.334;23.550;2022-10-31T05:36:37;11.18;;;3.47;;
66860;SDS011;53770;42.334;23.550;2022-10-31T05:39:04;7.97;;;3.20;;
66860;SDS011;53770;42.334;23.550;2022-10-31T05:41:30;10.23;;;3.20;;
66860;SDS011;53770;42.334;23.550;2022-10-31T05:44:08;6.65;;;2.65;;
66860;SDS011;53770;42.334;23.550;2022-10-31T05:46:34;8.68;;;3.58;;
66860;SDS011;53770;42.334;23.550;2022-10-31T05:49:01;9.73;;;3.95;;
66860;SDS011;53770;42.334;23.550;2022-10-31T05:51:28;6.57;;;3.20;;
66860;SDS011;53770;42.334;23.550;2022-10-31T05:54:11;6.18;;;2.92;;
66860;SDS011;53770;42.334;23.550;2022-10-31T05:56:38;7.97;;;3.45;;
66860;SDS011;53770;42.334;23.550;2022-10-31T05:59:05;9.82;;;3.10;;
66860;SDS011;53770;42.334;23.550;2022-10-31T06:01:33;10.32;;;4.13;;
66860;SDS011;53770;42.334;23.550;2022-10-31T06:04:02;12.30;;;4.33;;
66860;SDS011;53770;42.334;23.550;2022-10-31T06:06:29;21.40;;;7.47;;
66860;SDS011;53770;42.334;23.550;2022-10-31T06:08:56;10.07;;;3.80;;
66860;SDS011;53770;42.334;23.550;2022-10-31T06:11:22;12.82;;;4.38;;
66860;SDS011;53770;42.334;23.550;2022-10-31T06:13:58;10.40;;;4.05;;
66860;SDS011;53770;42.334;23.550;2022-10-31T06:16:24;14.20;;;5.87;;
66860;SDS011;53770;42.334;23.550;2022-10-31T06:18:53;16.05;;;5.60;;
66860;SDS011;53770;42.334;23.550;2022-10-31T06:21:19;12.00;;;5.55;;
66860;SDS011;53770;42.334;23.550;2022-10-31T06:23:46;10.60;;;3.58;;
66860;SDS011;53770;42.334;23.550;2022-10-31T06:26:13;11.95;;;3.78;;
66860;SDS011;53770;42.334;23.550;2022-10-31T06:28:40;9.23;;;3.90;;
66860;SDS011;53770;42.334;23.550;2022-10-31T06:31:06;7.57;;;3.20;;
66860;SDS011;53770;42.334;23.550;2022-10-31T06:33:33;6.85;;;3.60;;
66860;SDS011;53770;42.334;23.550;2022-10-31T06:36:02;8.30;;;2.83;;
66860;SDS011;53770;42.334;23.550;2022-10-31T06:38:29;6.95;;;2.97;;
66860;SDS011;53770;42.334;23.550;2022-10-31T06:40:56;8.17;;;3.40;;
66860;SDS011;53770;42.334;23.550;2022-10-31T06:43:23;10.55;;;4.00;;
66860;SDS011;53770;42.334;23.550;2022-10-31T06:45:49;9.60;;;3.30;;
66860;SDS011;53770;42.334;23.550;2022-10-31T06:48:16;6.32;;;2.85;;
66860;SDS011;53770;42.334;23.550;2022-10-31T06:50:43;9.73;;;3.10;;
66860;SDS011;53770;42.334;23.550;2022-10-31T06:53:11;10.57;;;3.10;;
66860;SDS011;53770;42.334;23.550;2022-10-31T06:55:39;8.23;;;3.20;;
66860;SDS011;53770;42.334;23.550;2022-10-31T06:58:06;8.00;;;2.72;;
66860;SDS011;53770;42.334;23.550;2022-10-31T07:00:33;9.27;;;3.40;;
66860;SDS011;53770;42.334;23.550;2022-10-31T07:03:00;6.82;;;2.60;;
66860;SDS011;53770;42.334;23.550;2022-10-31T07:05:29;8.30;;;2.83;;
66860;SDS011;53770;42.334;23.550;2022-10-31T07:07:58;8.77;;;3.10;;
66860;SDS011;53770;42.334;23.550;2022-10-31T07:10:40;6.70;;;2.85;;
66860;SDS011;53770;42.334;23.550;2022-10-31T07:13:09;7.55;;;3.10;;
66860;SDS011;53770;42.334;23.550;2022-10-31T07:15:38;7.25;;;3.40;;
66860;SDS011;53770;42.334;23.550;2022-10-31T07:18:06;10.33;;;2.83;;
66860;SDS011;53770;42.334;23.550;2022-10-31T07:20:34;7.25;;;2.42;;
66860;SDS011;53770;42.334;23.550;2022-10-31T07:23:02;8.43;;;2.50;;
66860;SDS011;53770;42.334;23.550;2022-10-31T07:25:30;8.60;;;2.92;;
66860;SDS011;53770;42.334;23.550;2022-10-31T07:27:58;6.15;;;2.85;;
66860;SDS011;53770;42.334;23.550;2022-10-31T07:30:25;8.20;;;2.40;;
66860;SDS011;53770;42.334;23.550;2022-10-31T07:32:52;9.52;;;3.00;;
66860;SDS011;53770;42.334;23.550;2022-10-31T07:35:19;7.82;;;2.72;;
66860;SDS011;53770;42.334;23.550;2022-10-31T07:37:47;10.20;;;3.00;;
66860;SDS011;53770;42.334;23.550;2022-10-31T07:40:14;7.45;;;2.78;;
66860;SDS011;53770;42.334;23.550;2022-10-31T07:42:42;7.80;;;2.70;;
66860;SDS011;53770;42.334;23.550;2022-10-31T07:45:13;8.70;;;2.75;;
66860;SDS011;53770;42.334;23.550;2022-10-31T07:47:44;6.88;;;2.22;;
66860;SDS011;53770;42.334;23.550;2022-10-31T07:50:13;8.57;;;2.47;;
66860;SDS011;53770;42.334;23.550;2022-10-31T07:52:41;7.25;;;2.03;;
66860;SDS011;53770;42.334;23.550;2022-10-31T07:55:08;5.77;;;2.37;;
66860;SDS011;53770;42.334;23.550;2022-10-31T07:57:35;7.95;;;2.55;;
66860;SDS011;53770;42.334;23.550;2022-10-31T08:00:02;6.13;;;2.53;;
66860;SDS011;53770;42.334;23.550;2022-10-31T08:02:31;9.30;;;3.10;;
66860;SDS011;53770;42.334;23.550;2022-10-31T08:04:58;5.90;;;2.75;;
66860;SDS011;53770;42.334;23.550;2022-10-31T08:07:27;7.47;;;2.40;;
66860;SDS011;53770;42.334;23.550;2022-10-31T08:09:54;6.43;;;2.30;;
66860;SDS011;53770;42.334;23.550;2022-10-31T08:12:21;5.50;;;3.00;;
66860;SDS011;53770;42.334;23.550;2022-10-31T08:14:48;8.32;;;3.03;;
66860;SDS011;53770;42.334;23.550;2022-10-31T08:17:16;5.55;;;2.90;;
66860;SDS011;53770;42.334;23.550;2022-10-31T08:19:45;10.23;;;2.93;;
66860;SDS011;53770;42.334;23.550;2022-10-31T08:22:12;7.15;;;4.05;;
66860;SDS011;53770;42.334;23.550;2022-10-31T08:24:39;13.50;;;7.40;;
66860;SDS011;53770;42.334;23.550;2022-10-31T08:27:06;8.23;;;3.28;;
66860;SDS011;53770;42.334;23.550;2022-10-31T08:29:35;5.70;;;3.00;;
66860;SDS011;53770;42.334;23.550;2022-10-31T08:32:02;5.80;;;2.90;;
66860;SDS011;53770;42.334;23.550;2022-10-31T08:34:29;7.05;;;3.33;;
66860;SDS011;53770;42.334;23.550;2022-10-31T08:36:58;7.22;;;3.45;;
66860;SDS011;53770;42.334;23.550;2022-10-31T08:39:24;7.15;;;3.20;;
66860;SDS011;53770;42.334;23.550;2022-10-31T08:41:51;5.95;;;3.42;;
66860;SDS011;53770;42.334;23.550;2022-10-31T08:44:18;8.00;;;3.60;;
66860;SDS011;53770;42.334;23.550;2022-10-31T08:46:45;10.45;;;4.03;;
66860;SDS011;53770;42.334;23.550;2022-10-31T08:49:11;7.80;;;4.70;;
66860;SDS011;53770;42.334;23.550;2022-10-31T08:51:38;10.15;;;4.78;;
66860;SDS011;53770;42.334;23.550;2022-10-31T08:54:06;6.50;;;3.95;;
66860;SDS011;53770;42.334;23.550;2022-10-31T08:56:33;7.13;;;4.27;;
66860;SDS011;53770;42.334;23.550;2022-10-31T08:59:00;9.63;;;4.47;;
66860;SDS011;53770;42.334;23.550;2022-10-31T09:01:27;8.05;;;4.32;;
66860;SDS011;53770;42.334;23.550;2022-10-31T09:03:54;10.32;;;4.00;;
66860;SDS011;53770;42.334;23.550;2022-10-31T09:06:21;6.65;;;4.32;;
66860;SDS011;53770;42.334;23.550;2022-10-31T09:08:48;7.70;;;4.50;;
66860;SDS011;53770;42.334;23.550;2022-10-31T09:11:19;8.00;;;4.50;;
66860;SDS011;53770;42.334;23.550;2022-10-31T09:13:45;9.23;;;5.25;;
66860;SDS011;53770;42.334;23.550;2022-10-31T09:16:12;8.40;;;5.50;;
66860;SDS011;53770;42.334;23.550;2022-10-31T09:18:39;15.10;;;9.15;;
66860;SDS011;53770;42.334;23.550;2022-10-31T09:21:07;12.13;;;6.43;;
66860;SDS011;53770;42.334;23.550;2022-10-31T09:23:33;5.22;;;4.22;;
66860;SDS011;53770;42.334;23.550;2022-10-31T09:26:00;8.35;;;5.18;;
66860;SDS011;53770;42.334;23.550;2022-10-31T09:28:29;9.63;;;5.10;;
66860;SDS011;53770;42.334;23.550;2022-10-31T09:30:56;8.45;;;4.95;;
66860;SDS011;53770;42.334;23.550;2022-10-31T09:33:23;5.97;;;5.03;;
66860;SDS011;53770;42.334;23.550;2022-10-31T09:35:50;7.97;;;5.82;;
66860;SDS011;53770;42.334;23.550;2022-10-31T09:38:18;10.05;;;5.60;;
66860;SDS011;53770;42.334;23.550;2022-10-31T09:40:46;13.02;;;5.82;;
66860;SDS011;53770;42.334;23.550;2022-10-31T09:43:15;11.70;;;7.10;;
66860;SDS011;53770;42.334;23.550;2022-10-31T09:45:55;10.30;;;5.33;;
66860;SDS011;53770;42.334;23.550;2022-10-31T09:48:30;10.82;;;5.65;;
66860;SDS011;53770;42.334;23.550;2022-10-31T09:51:04;8.48;;;6.40;;
66860;SDS011;53770;42.334;23.550;2022-10-31T09:53:37;13.02;;;6.03;;
66860;SDS011;53770;42.334;23.550;2022-10-31T09:56:08;9.82;;;6.15;;
66860;SDS011;53770;42.334;23.550;2022-10-31T09:58:40;10.20;;;5.53;;
66860;SDS011;53770;42.334;23.550;2022-10-31T10:01:14;11.73;;;6.68;;
66860;SDS011;53770;42.334;23.550;2022-10-31T10:03:54;12.10;;;6.38;;
66860;SDS011;53770;42.334;23.550;2022-10-31T10:06:24;11.45;;;6.10;;
66860;SDS011;53770;42.334;23.550;2022-10-31T10:08:53;8.50;;;5.75;;
66860;SDS011;53770;42.334;23.550;2022-10-31T10:11:25;19.53;;;9.40;;
66860;SDS011;53770;42.334;23.550;2022-10-31T10:14:12;16.77;;;8.20;;
66860;SDS011;53770;42.334;23.550;2022-10-31T10:16:52;8.18;;;6.80;;
66860;SDS011;53770;42.334;23.550;2022-10-31T10:19:40;12.65;;;6.35;;
66860;SDS011;53770;42.334;23.550;2022-10-31T10:22:38;15.02;;;8.38;;
66860;SDS011;53770;42.334;23.550;2022-10-31T10:25:14;10.23;;;7.07;;
66860;SDS011;53770;42.334;23.550;2022-10-31T10:27:46;10.70;;;7.40;;
66860;SDS011;53770;42.334;23.550;2022-10-31T10:30:18;14.10;;;7.78;;
66860;SDS011;53770;42.334;23.550;2022-10-31T10:32:48;11.15;;;7.38;;
66860;SDS011;53770;42.334;23.550;2022-10-31T10:35:24;8.27;;;6.65;;
66860;SDS011;53770;42.334;23.550;2022-10-31T10:37:56;10.10;;;6.67;;
66860;SDS011;53770;42.334;23.550;2022-10-31T10:40:28;8.23;;;7.38;;
66860;SDS011;53770;42.334;23.550;2022-10-31T10:42:57;9.20;;;7.75;;
66860;SDS011;53770;42.334;23.550;2022-10-31T10:45:49;9.10;;;8.10;;
66860;SDS011;53770;42.334;23.550;2022-10-31T10:48:41;13.48;;;10.05;;
66860;SDS011;53770;42.334;23.550;2022-10-31T10:51:18;9.90;;;7.70;;
66860;SDS011;53770;42.334;23.550;2022-10-31T10:53:55;13.73;;;8.30;;
66860;SDS011;53770;42.334;23.550;2022-10-31T10:56:42;10.63;;;8.05;;
66860;SDS011;53770;42.334;23.550;2022-10-31T10:59:18;8.60;;;7.68;;
66860;SDS011;53770;42.334;23.550;2022-10-31T11:01:48;9.20;;;8.18;;
66860;SDS011;53770;42.334;23.550;2022-10-31T11:04:28;8.90;;;7.17;;
66860;SDS011;53770;42.334;23.550;2022-10-31T11:06:57;10.07;;;7.55;;
66860;SDS011;53770;42.334;23.550;2022-10-31T11:09:27;10.35;;;7.85;;
66860;SDS011;53770;42.334;23.550;2022-10-31T11:11:55;9.30;;;7.78;;
66860;SDS011;53770;42.334;23.550;2022-10-31T11:14:22;10.43;;;6.97;;
66860;SDS011;53770;42.334;23.550;2022-10-31T11:16:51;6.90;;;5.30;;
66860;SDS011;53770;42.334;23.550;2022-10-31T11:19:21;7.57;;;5.47;;
66860;SDS011;53770;42.334;23.550;2022-10-31T11:21:51;10.02;;;6.28;;
66860;SDS011;53770;42.334;23.550;2022-10-31T11:24:19;8.00;;;5.20;;
66860;SDS011;53770;42.334;23.550;2022-10-31T11:26:48;10.15;;;4.50;;
66860;SDS011;53770;42.334;23.550;2022-10-31T11:29:17;9.40;;;4.23;;
66860;SDS011;53770;42.334;23.550;2022-10-31T11:31:50;7.72;;;4.13;;
66860;SDS011;53770;42.334;23.550;2022-10-31T11:34:24;8.15;;;4.88;;
66860;SDS011;53770;42.334;23.550;2022-10-31T11:36:56;11.18;;;5.53;;
66860;SDS011;53770;42.334;23.550;2022-10-31T11:39:32;8.20;;;5.68;;
66860;SDS011;53770;42.334;23.550;2022-10-31T11:41:59;11.23;;;6.07;;
66860;SDS011;53770;42.334;23.550;2022-10-31T11:44:29;12.00;;;6.75;;
66860;SDS011;53770;42.334;23.550;2022-10-31T11:46:58;9.27;;;5.95;;
66860;SDS011;53770;42.334;23.550;2022-10-31T11:49:28;9.90;;;6.65;;
66860;SDS011;53770;42.334;23.550;2022-10-31T11:52:00;10.60;;;6.50;;
66860;SDS011;53770;42.334;23.550;2022-10-31T11:54:32;7.23;;;6.40;;
66860;SDS011;53770;42.334;23.550;2022-10-31T11:57:21;11.25;;;6.57;;
66860;SDS011;53770;42.334;23.550;2022-10-31T11:59:51;11.52;;;7.22;;
66860;SDS011;53770;42.334;23.550;2022-10-31T12:02:20;16.25;;;13.00;;
66860;SDS011;53770;42.334;23.550;2022-10-31T12:04:50;13.70;;;11.95;;
66860;SDS011;53770;42.334;23.550;2022-10-31T12:07:23;9.67;;;7.60;;
66860;SDS011;53770;42.334;23.550;2022-10-31T12:09:50;9.07;;;6.95;;
66860;SDS011;53770;42.334;23.550;2022-10-31T12:15:27;8.50;;;7.70;;
66860;SDS011;53770;42.334;23.550;2022-10-31T12:18:01;13.60;;;7.93;;
66860;SDS011;53770;42.334;23.550;2022-10-31T12:20:48;9.00;;;8.20;;
66860;SDS011;53770;42.334;23.550;2022-10-31T12:23:25;9.00;;;7.30;;
66860;SDS011;53770;42.334;23.550;2022-10-31T12:26:06;8.48;;;7.63;;
66860;SDS011;53770;42.334;23.550;2022-10-31T12:28:44;11.35;;;7.43;;
66860;SDS011;53770;42.334;23.550;2022-10-31T12:31:24;11.80;;;8.43;;
66860;SDS011;53770;42.334;23.550;2022-10-31T12:34:02;10.47;;;7.87;;
66860;SDS011;53770;42.334;23.550;2022-10-31T12:36:51;9.02;;;8.07;;
66860;SDS011;53770;42.334;23.550;2022-10-31T12:39:28;9.82;;;8.80;;
66860;SDS011;53770;42.334;23.550;2022-10-31T12:42:07;15.73;;;9.68;;
66860;SDS011;53770;42.334;23.550;2022-10-31T12:44:58;11.25;;;7.68;;
66860;SDS011;53770;42.334;23.550;2022-10-31T12:47:50;9.83;;;8.73;;
66860;SDS011;53770;42.334;23.550;2022-10-31T12:50:28;9.15;;;5.15;;
66860;SDS011;53770;42.334;23.550;2022-10-31T12:53:18;8.55;;;3.92;;
66860;SDS011;53770;42.334;23.550;2022-10-31T12:55:55;8.70;;;4.03;;
66860;SDS011;53770;42.334;23.550;2022-10-31T12:58:33;7.50;;;5.00;;
66860;SDS011;53770;42.334;23.550;2022-10-31T13:01:07;7.90;;;3.57;;
66860;SDS011;53770;42.334;23.550;2022-10-31T13:03:42;9.93;;;3.20;;
66860;SDS011;53770;42.334;23.550;2022-10-31T13:06:15;6.45;;;2.92;;
66860;SDS011;53770;42.334;23.550;2022-10-31T13:08:47;7.50;;;4.60;;
66860;SDS011;53770;42.334;23.550;2022-10-31T13:11:18;8.52;;;4.80;;
66860;SDS011;53770;42.334;23.550;2022-10-31T13:13:51;11.10;;;4.73;;
66860;SDS011;53770;42.334;23.550;2022-10-31T13:16:24;6.78;;;4.72;;
66860;SDS011;53770;42.334;23.550;2022-10-31T13:19:01;9.07;;;5.18;;
66860;SDS011;53770;42.334;23.550;2022-10-31T13:21:33;8.40;;;5.43;;
66860;SDS011;53770;42.334;23.550;2022-10-31T13:24:04;8.10;;;4.88;;
66860;SDS011;53770;42.334;23.550;2022-10-31T13:26:40;8.93;;;4.97;;
66860;SDS011;53770;42.334;23.550;2022-10-31T13:29:13;8.20;;;5.65;;
66860;SDS011;53770;42.334;23.550;2022-10-31T13:31:45;17.92;;;9.25;;
66860;SDS011;53770;42.334;23.550;2022-10-31T13:34:16;12.18;;;7.15;;
66860;SDS011;53770;42.334;23.550;2022-10-31T13:36:55;9.13;;;5.53;;
66860;SDS011;53770;42.334;23.550;2022-10-31T13:39:32;12.60;;;6.80;;
66860;SDS011;53770;42.334;23.550;2022-10-31T13:42:14;10.82;;;6.18;;
66860;SDS011;53770;42.334;23.550;2022-10-31T13:44:46;8.48;;;5.95;;
66860;SDS011;53770;42.334;23.550;2022-10-31T13:47:23;8.70;;;5.88;;
66860;SDS011;53770;42.334;23.550;2022-10-31T13:49:52;8.98;;;4.88;;
66860;SDS011;53770;42.334;23.550;2022-10-31T13:52:31;8.27;;;4.00;;
66860;SDS011;53770;42.334;23.550;2022-10-31T13:54:57;8.25;;;3.35;;
66860;SDS011;53770;42.334;23.550;2022-10-31T14:44:27;9.30;;;4.40;;
66860;SDS011;53770;42.334;23.550;2022-10-31T14:47:09;11.88;;;4.50;;
66860;SDS011;53770;42.334;23.550;2022-10-31T14:52:48;10.75;;;4.30;;
66860;SDS011;53770;42.334;23.550;2022-10-31T14:55:17;12.73;;;4.60;;
66860;SDS011;53770;42.334;23.550;2022-10-31T14:57:49;14.33;;;5.17;;
66860;SDS011;53770;42.334;23.550;2022-10-31T15:00:20;10.50;;;5.00;;
66860;SDS011;53770;42.334;23.550;2022-10-31T15:02:51;12.90;;;5.65;;
66860;SDS011;53770;42.334;23.550;2022-10-31T15:05:29;13.25;;;4.78;;
66860;SDS011;53770;42.334;23.550;2022-10-31T15:07:58;18.33;;;5.07;;
66860;SDS011;53770;42.334;23.550;2022-10-31T15:10:26;12.57;;;4.43;;
66860;SDS011;53770;42.334;23.550;2022-10-31T15:12:54;14.07;;;4.85;;
66860;SDS011;53770;42.334;23.550;2022-10-31T15:15:24;12.40;;;4.55;;
66860;SDS011;53770;42.334;23.550;2022-10-31T15:17:52;16.42;;;5.80;;
66860;SDS011;53770;42.334;23.550;2022-10-31T15:20:21;15.20;;;5.88;;
66860;SDS011;53770;42.334;23.550;2022-10-31T15:22:49;14.57;;;5.90;;
66860;SDS011;53770;42.334;23.550;2022-10-31T15:25:17;14.52;;;6.10;;
66860;SDS011;53770;42.334;23.550;2022-10-31T15:27:46;18.25;;;6.40;;
66860;SDS011;53770;42.334;23.550;2022-10-31T15:30:16;23.50;;;10.65;;
66860;SDS011;53770;42.334;23.550;2022-10-31T15:32:45;21.60;;;11.02;;
66860;SDS011;53770;42.334;23.550;2022-10-31T15:35:19;24.57;;;12.13;;
66860;SDS011;53770;42.334;23.550;2022-10-31T15:37:47;17.85;;;7.13;;
66860;SDS011;53770;42.334;23.550;2022-10-31T15:40:15;25.08;;;13.38;;
66860;SDS011;53770;42.334;23.550;2022-10-31T15:42:43;40.47;;;20.58;;
66860;SDS011;53770;42.334;23.550;2022-10-31T15:45:17;33.35;;;15.43;;
66860;SDS011;53770;42.334;23.550;2022-10-31T15:47:48;50.53;;;18.73;;
66860;SDS011;53770;42.334;23.550;2022-10-31T15:50:21;23.75;;;8.70;;
66860;SDS011;53770;42.334;23.550;2022-10-31T15:52:51;14.07;;;6.25;;
66860;SDS011;53770;42.334;23.550;2022-10-31T15:55:19;23.40;;;9.40;;
66860;SDS011;53770;42.334;23.550;2022-10-31T15:57:48;19.60;;;7.65;;
66860;SDS011;53770;42.334;23.550;2022-10-31T16:00:24;18.20;;;6.83;;
66860;SDS011;53770;42.334;23.550;2022-10-31T16:03:04;15.77;;;6.85;;
66860;SDS011;53770;42.334;23.550;2022-10-31T16:05:34;23.50;;;7.65;;
66860;SDS011;53770;42.334;23.550;2022-10-31T16:08:03;19.60;;;8.32;;
66860;SDS011;53770;42.334;23.550;2022-10-31T16:10:32;15.00;;;5.25;;
66860;SDS011;53770;42.334;23.550;2022-10-31T16:13:00;12.60;;;4.93;;
66860;SDS011;53770;42.334;23.550;2022-10-31T16:15:28;9.52;;;4.50;;
66860;SDS011;53770;42.334;23.550;2022-10-31T16:17:55;12.45;;;4.63;;
66860;SDS011;53770;42.334;23.550;2022-10-31T16:20:26;7.78;;;3.83;;
66860;SDS011;53770;42.334;23.550;2022-10-31T16:22:57;9.10;;;4.10;;
66860;SDS011;53770;42.334;23.550;2022-10-31T16:25:25;11.87;;;4.33;;
66860;SDS011;53770;42.334;23.550;2022-10-31T16:27:54;13.32;;;4.50;;
66860;SDS011;53770;42.334;23.550;2022-10-31T16:30:30;10.82;;;4.60;;
66860;SDS011;53770;42.334;23.550;2022-10-31T16:33:04;12.43;;;5.13;;
66860;SDS011;53770;42.334;23.550;2022-10-31T16:35:34;11.75;;;4.10;;
66860;SDS011;53770;42.334;23.550;2022-10-31T16:38:01;9.53;;;4.90;;
66860;SDS011;53770;42.334;23.550;2022-10-31T16:40:29;11.88;;;4.65;;
66860;SDS011;53770;42.334;23.550;2022-10-31T16:42:57;13.30;;;5.82;;
66860;SDS011;53770;42.334;23.550;2022-10-31T16:45:25;14.52;;;7.35;;
66860;SDS011;53770;42.334;23.550;2022-10-31T16:47:53;15.88;;;9.00;;
66860;SDS011;53770;42.334;23.550;2022-10-31T16:50:27;13.97;;;5.13;;
66860;SDS011;53770;42.334;23.550;2022-10-31T16:52:55;10.48;;;4.68;;
66860;SDS011;53770;42.334;23.550;2022-10-31T16:55:22;8.98;;;4.03;;
66860;SDS011;53770;42.334;23.550;2022-10-31T16:57:49;10.80;;;3.80;;
66860;SDS011;53770;42.334;23.550;2022-10-31T17:00:18;8.45;;;3.75;;
66860;SDS011;53770;42.334;23.550;2022-10-31T17:02:46;10.27;;;3.70;;
66860;SDS011;53770;42.334;23.550;2022-10-31T17:05:16;9.25;;;4.38;;
66860;SDS011;53770;42.334;23.550;2022-10-31T17:07:43;12.30;;;4.15;;
66860;SDS011;53770;42.334;23.550;2022-10-31T17:10:12;14.63;;;4.82;;
66860;SDS011;53770;42.334;23.550;2022-10-31T17:12:41;10.82;;;5.10;;